Medley, Florida
Current Conditions -  °F | °C
As of 2:53 PM on Wednesday 26 Nov 2014 (Local Time) from KMIA Reporting Station
Overcast Overcast  
Wind Chill: 66°   Ceiling: 1600
Heat Index: 66°   Visibility: 10mi
Dew Point: 58°   Wind: 14mph
Humidity: 75%   Direction: 330°NNW
Pressure: 30.09"   Gusts: 23mph
Location:  25.8372°N, 80.3985°W
Report Text: KMIA 261953Z 33012G20KT 10SM BKN016 BKN075 OVC230 19/14 A3009 RMK AO2 SLP191 T01890144
Loading
Personal Weather Stations






























Interactive Weather Map New forecast layout! Learn more

10-Day Weather Forecast

Advertisements
Track Severe Weather on mobile